createdAt,value
2023-03-19T00:00:33.112Z,7.76
2023-03-19T00:01:33.100Z,7.78
2023-03-19T00:02:33.122Z,7.79
2023-03-19T00:03:33.121Z,7.80
2023-03-19T00:04:33.070Z,7.82
2023-03-19T00:05:33.492Z,7.81
2023-03-19T00:06:33.135Z,7.84
2023-03-19T00:07:33.103Z,7.84
2023-03-19T00:08:33.097Z,7.85
2023-03-19T00:09:33.151Z,7.84
2023-03-19T00:10:33.110Z,7.84
2023-03-19T00:11:33.110Z,7.84
2023-03-19T00:12:33.151Z,7.84
2023-03-19T00:13:33.174Z,7.82
2023-03-19T00:14:33.106Z,7.81
2023-03-19T00:15:33.400Z,7.81
2023-03-19T00:16:33.194Z,7.81
2023-03-19T00:17:33.107Z,7.81
2023-03-19T00:18:33.097Z,7.81
2023-03-19T00:19:33.103Z,7.81
2023-03-19T00:20:33.124Z,7.82
2023-03-19T00:21:33.132Z,7.83
2023-03-19T00:22:33.172Z,7.83
2023-03-19T00:23:33.131Z,7.84
2023-03-19T00:24:33.137Z,7.86
2023-03-19T00:25:33.441Z,7.85
2023-03-19T00:26:33.132Z,7.86
2023-03-19T00:27:33.181Z,7.88
2023-03-19T00:28:33.148Z,7.88
2023-03-19T00:29:33.114Z,7.89
2023-03-19T00:30:33.154Z,7.91
2023-03-19T00:31:33.144Z,7.92
2023-03-19T00:32:33.185Z,7.92
2023-03-19T00:33:33.136Z,7.93
2023-03-19T00:34:33.160Z,7.94
2023-03-19T00:35:33.453Z,7.95
2023-03-19T00:36:33.282Z,7.96
2023-03-19T00:37:33.117Z,7.97
2023-03-19T00:38:33.147Z,7.98
2023-03-19T00:39:33.148Z,7.97
2023-03-19T00:40:33.193Z,7.98
2023-03-19T00:41:33.158Z,7.97
2023-03-19T00:42:33.171Z,7.97
2023-03-19T00:43:33.302Z,7.96
2023-03-19T00:44:33.194Z,7.96
2023-03-19T00:45:33.485Z,7.97
2023-03-19T00:46:33.187Z,7.98
2023-03-19T00:47:33.219Z,7.97
2023-03-19T00:48:33.208Z,7.98
2023-03-19T00:49:33.241Z,8.00
2023-03-19T00:50:33.278Z,8.00
2023-03-19T00:51:33.267Z,8.00
2023-03-19T00:52:33.530Z,8.01
2023-03-19T00:53:33.285Z,8.04
2023-03-19T00:54:33.306Z,8.03
2023-03-19T00:55:33.577Z,8.05
2023-03-19T00:56:33.321Z,8.06
2023-03-19T00:57:33.363Z,8.06
2023-03-19T00:58:33.341Z,8.07
2023-03-19T00:59:33.405Z,8.08
2023-03-19T01:01:33.406Z,8.09
2023-03-19T01:02:33.397Z,8.08
2023-03-19T01:03:33.370Z,8.10
2023-03-19T01:04:56.277Z,8.10
2023-03-19T01:05:56.281Z,8.11
2023-03-19T01:06:56.287Z,8.10
2023-03-19T01:07:56.330Z,8.10
2023-03-19T01:08:56.296Z,8.09
2023-03-19T01:09:56.287Z,8.10
2023-03-19T01:10:56.309Z,8.10
2023-03-19T01:11:56.346Z,8.11
2023-03-19T01:12:56.323Z,8.09
2023-03-19T01:13:56.341Z,8.10
2023-03-19T01:14:56.355Z,8.10
2023-03-19T01:15:56.321Z,8.11
2023-03-19T01:16:56.313Z,8.11
2023-03-19T01:17:56.335Z,8.10
2023-03-19T01:18:56.344Z,8.11
2023-03-19T01:19:56.350Z,8.12
2023-03-19T01:20:56.325Z,8.12
2023-03-19T01:21:56.345Z,8.12
2023-03-19T01:22:56.365Z,8.12
2023-03-19T01:23:56.351Z,8.13
2023-03-19T01:24:56.338Z,8.14
2023-03-19T01:25:56.345Z,8.15
2023-03-19T01:26:56.335Z,8.16
2023-03-19T01:27:56.368Z,8.15
2023-03-19T01:28:56.358Z,8.17
2023-03-19T01:29:56.344Z,8.16
2023-03-19T01:30:56.390Z,8.16
2023-03-19T01:31:56.352Z,8.16
2023-03-19T01:32:56.495Z,8.16
2023-03-19T01:33:56.361Z,8.16
2023-03-19T01:34:56.351Z,8.15
2023-03-19T01:35:56.380Z,8.15
2023-03-19T01:36:56.367Z,8.15
2023-03-19T01:37:56.363Z,8.16
2023-03-19T01:38:56.364Z,8.15
2023-03-19T01:39:56.362Z,8.16
2023-03-19T01:40:56.337Z,8.17
2023-03-19T01:41:56.356Z,8.17
2023-03-19T01:42:56.523Z,8.17
2023-03-19T01:43:56.526Z,8.18
2023-03-19T01:44:56.528Z,8.18
2023-03-19T01:45:56.509Z,8.19
2023-03-19T01:46:56.537Z,8.20
2023-03-19T01:47:56.546Z,8.18
2023-03-19T01:48:56.582Z,8.19
2023-03-19T01:49:56.578Z,8.20
2023-03-19T01:50:56.598Z,8.19
2023-03-19T01:51:56.583Z,8.22
2023-03-19T01:52:56.582Z,8.21
2023-03-19T01:53:56.631Z,8.21
2023-03-19T01:54:56.627Z,8.20
2023-03-19T01:55:56.638Z,8.20
2023-03-19T01:56:56.737Z,8.20
2023-03-19T01:57:56.749Z,8.19
2023-03-19T01:58:56.752Z,8.18
2023-03-19T01:59:56.776Z,8.17
2023-03-19T02:00:56.741Z,8.17
2023-03-19T02:01:56.802Z,8.18
2023-03-19T02:02:56.752Z,8.18
2023-03-19T02:03:56.742Z,8.17
2023-03-19T02:04:56.789Z,8.16
2023-03-19T02:05:56.768Z,8.17
2023-03-19T02:06:56.770Z,8.17
2023-03-19T02:07:56.802Z,8.17
2023-03-19T02:08:56.786Z,8.17
2023-03-19T02:09:56.822Z,8.17
2023-03-19T02:10:56.815Z,8.17
2023-03-19T02:11:56.868Z,8.16
2023-03-19T02:12:56.912Z,8.17
2023-03-19T02:13:56.856Z,8.18
2023-03-19T02:14:56.849Z,8.18
2023-03-19T02:15:56.963Z,8.18
2023-03-19T02:16:56.894Z,8.20
2023-03-19T02:17:56.911Z,8.21
2023-03-19T02:18:56.916Z,8.21
2023-03-19T02:19:56.926Z,8.22
2023-03-19T02:20:56.948Z,8.23
2023-03-19T02:21:56.913Z,8.23
2023-03-19T02:22:56.972Z,8.23
2023-03-19T02:23:56.982Z,8.23
2023-03-19T02:24:56.976Z,8.23
2023-03-19T02:25:56.993Z,8.23
2023-03-19T02:26:56.991Z,8.23
2023-03-19T02:27:57.016Z,8.23
2023-03-19T02:28:57.023Z,8.24
2023-03-19T02:29:57.018Z,8.24
2023-03-19T02:30:57.076Z,8.23
2023-03-19T02:31:57.044Z,8.24
2023-03-19T02:32:57.166Z,8.24
2023-03-19T02:33:57.064Z,8.23
2023-03-19T02:34:57.106Z,8.24
2023-03-19T02:35:57.150Z,8.23
2023-03-19T02:36:57.124Z,8.21
2023-03-19T02:37:57.113Z,8.22
2023-03-19T02:38:57.173Z,8.20
2023-03-19T02:39:57.136Z,8.20
2023-03-19T02:40:57.152Z,8.18
2023-03-19T02:41:57.173Z,8.18
2023-03-19T02:42:57.175Z,8.16
2023-03-19T02:43:57.192Z,8.16
2023-03-19T02:44:57.214Z,8.13
2023-03-19T02:45:57.208Z,8.15
2023-03-19T02:46:57.311Z,8.12
2023-03-19T02:47:57.260Z,8.11
2023-03-19T02:48:57.265Z,8.10
2023-03-19T02:49:57.283Z,8.09
2023-03-19T02:50:57.340Z,8.09
2023-03-19T02:51:57.325Z,8.08
2023-03-19T02:52:57.329Z,8.07
2023-03-19T02:53:57.335Z,8.08
2023-03-19T02:54:57.323Z,8.06
2023-03-19T02:55:57.340Z,8.06
2023-03-19T02:56:57.366Z,8.06
2023-03-19T02:57:57.381Z,8.05
2023-03-19T02:58:57.416Z,8.05
2023-03-19T02:59:57.399Z,8.04
2023-03-19T03:00:57.419Z,8.05
2023-03-19T03:01:57.442Z,8.05
2023-03-19T03:02:57.426Z,8.05
2023-03-19T03:03:57.437Z,8.05
2023-03-19T03:04:57.456Z,8.05
2023-03-19T03:05:57.469Z,8.05
2023-03-19T03:06:57.488Z,8.03
2023-03-19T03:07:57.481Z,8.02
2023-03-19T03:08:57.503Z,8.00
2023-03-19T03:09:57.522Z,7.99
2023-03-19T03:10:57.532Z,7.96
2023-03-19T03:11:57.540Z,7.94
2023-03-19T03:12:57.561Z,7.93
2023-03-19T03:13:57.561Z,7.90
2023-03-19T03:14:57.562Z,7.88
2023-03-19T03:15:57.578Z,7.86
2023-03-19T03:16:57.596Z,7.84
2023-03-19T03:17:57.683Z,7.81
2023-03-19T03:18:57.635Z,7.79
2023-03-19T03:19:57.642Z,7.77
2023-03-19T03:20:57.660Z,7.73
2023-03-19T03:21:57.659Z,7.71
2023-03-19T03:22:57.728Z,7.69
2023-03-19T03:23:57.724Z,7.64
2023-03-19T03:24:57.796Z,7.65
2023-03-19T03:25:57.798Z,7.62
2023-03-19T03:26:57.815Z,7.60
2023-03-19T03:27:57.808Z,7.59
2023-03-19T03:28:57.804Z,7.59
2023-03-19T03:29:57.834Z,7.57
2023-03-19T03:30:57.792Z,7.56
2023-03-19T03:31:57.868Z,7.55
2023-03-19T03:32:57.808Z,7.53
2023-03-19T03:33:57.825Z,7.52
2023-03-19T03:34:57.846Z,7.49
2023-03-19T03:35:57.918Z,7.47
2023-03-19T03:36:57.836Z,7.44
2023-03-19T03:37:57.858Z,7.42
2023-03-19T03:38:57.872Z,7.41
2023-03-19T03:39:57.907Z,7.38
2023-03-19T03:40:57.895Z,7.35
2023-03-19T03:41:57.908Z,7.32
2023-03-19T03:42:57.975Z,7.29
2023-03-19T03:43:57.922Z,7.26
2023-03-19T03:44:57.964Z,7.23
2023-03-19T03:45:57.984Z,7.21
2023-03-19T03:46:57.973Z,7.20
2023-03-19T03:47:57.992Z,7.19
2023-03-19T03:48:57.984Z,7.19
2023-03-19T03:49:58.048Z,7.17
2023-03-19T03:50:58.045Z,7.17
2023-03-19T03:51:58.088Z,7.16
2023-03-19T03:52:58.035Z,7.15
2023-03-19T03:53:58.058Z,7.14
2023-03-19T03:54:58.070Z,7.11
2023-03-19T03:55:58.102Z,7.11
2023-03-19T03:56:58.097Z,7.10
2023-03-19T03:57:58.098Z,7.08
2023-03-19T03:58:58.103Z,7.07
2023-03-19T03:59:58.131Z,7.06
2023-03-19T04:00:58.212Z,7.05
2023-03-19T04:01:58.188Z,7.05
2023-03-19T04:02:58.189Z,7.04
2023-03-19T04:03:58.194Z,7.05
2023-03-19T04:04:58.197Z,7.05
2023-03-19T04:05:58.208Z,7.04
2023-03-19T04:06:58.214Z,7.04
2023-03-19T04:07:58.226Z,7.03
2023-03-19T04:08:58.238Z,7.05
2023-03-19T04:09:58.263Z,7.05
2023-03-19T04:10:58.262Z,7.03
2023-03-19T04:11:58.288Z,7.02
2023-03-19T04:12:58.289Z,7.01
2023-03-19T04:13:58.311Z,7.01
2023-03-19T04:14:58.312Z,7.00
2023-03-19T04:15:58.378Z,6.99
2023-03-19T04:16:58.408Z,6.98
2023-03-19T04:17:58.341Z,6.97
2023-03-19T04:18:58.366Z,6.96
2023-03-19T04:19:58.368Z,6.94
2023-03-19T04:20:58.371Z,6.93
2023-03-19T04:21:58.386Z,6.89
2023-03-19T04:22:58.416Z,6.86
2023-03-19T04:23:58.430Z,6.83
2023-03-19T04:24:58.473Z,6.82
2023-03-19T04:25:58.437Z,6.78
2023-03-19T04:26:58.441Z,6.77
2023-03-19T04:27:58.469Z,6.74
2023-03-19T04:28:58.489Z,6.71
2023-03-19T04:29:58.486Z,6.71
2023-03-19T04:30:58.478Z,6.69
2023-03-19T04:31:58.485Z,6.65
2023-03-19T04:32:58.549Z,6.64
2023-03-19T04:33:58.529Z,6.62
2023-03-19T04:34:58.541Z,6.61
2023-03-19T04:35:58.562Z,6.57
2023-03-19T04:36:58.561Z,6.56
2023-03-19T04:37:58.601Z,6.56
2023-03-19T04:38:58.589Z,6.52
2023-03-19T04:39:58.596Z,6.49
2023-03-19T04:40:58.612Z,6.49
2023-03-19T04:41:58.618Z,6.49
2023-03-19T04:42:58.643Z,6.48
2023-03-19T04:43:58.647Z,6.47
2023-03-19T04:44:58.676Z,6.46
2023-03-19T04:45:58.663Z,6.44
2023-03-19T04:46:58.672Z,6.43
2023-03-19T04:47:58.717Z,6.40
2023-03-19T04:48:58.694Z,6.39
2023-03-19T04:49:58.739Z,6.37
2023-03-19T04:50:58.746Z,6.34
2023-03-19T04:51:58.741Z,6.31
2023-03-19T04:52:58.773Z,6.29
2023-03-19T04:53:58.776Z,6.24
2023-03-19T04:54:58.788Z,6.22
2023-03-19T04:55:58.792Z,6.17
2023-03-19T04:56:58.802Z,6.15
2023-03-19T04:57:58.900Z,6.13
2023-03-19T04:58:58.828Z,6.08
2023-03-19T04:59:58.891Z,6.05
2023-03-19T05:00:58.867Z,6.03
2023-03-19T05:01:58.874Z,6.01
2023-03-19T05:02:58.896Z,5.99
2023-03-19T05:03:59.037Z,5.96
2023-03-19T05:04:58.893Z,5.93
2023-03-19T05:05:58.908Z,5.93
2023-03-19T05:06:58.920Z,5.92
2023-03-19T05:07:58.947Z,5.91
2023-03-19T05:08:58.954Z,5.90
2023-03-19T05:09:58.946Z,5.87
2023-03-19T05:10:58.986Z,5.86
2023-03-19T05:11:59.005Z,5.86
2023-03-19T05:12:58.985Z,5.84
2023-03-19T05:13:59.006Z,5.81
2023-03-19T05:14:59.251Z,5.80
2023-03-19T05:15:59.055Z,5.78
2023-03-19T05:16:59.049Z,5.76
2023-03-19T05:17:59.047Z,5.73
2023-03-19T05:18:59.071Z,5.72
2023-03-19T05:19:59.075Z,5.70
2023-03-19T05:20:59.088Z,5.68
2023-03-19T05:21:59.082Z,5.67
2023-03-19T05:22:59.132Z,5.65
2023-03-19T05:23:59.133Z,5.62
2023-03-19T05:24:59.133Z,5.62
2023-03-19T05:25:59.165Z,5.60
2023-03-19T05:26:59.147Z,5.58
2023-03-19T05:27:59.176Z,5.56
2023-03-19T05:28:59.184Z,5.53
2023-03-19T05:29:59.184Z,5.52
2023-03-19T05:30:59.255Z,5.51
2023-03-19T05:31:59.230Z,5.48
2023-03-19T05:32:59.283Z,5.46
2023-03-19T05:33:59.230Z,5.42
2023-03-19T05:34:59.257Z,5.40
2023-03-19T05:35:59.319Z,5.39
2023-03-19T05:36:59.268Z,5.37
2023-03-19T05:37:59.273Z,5.37
2023-03-19T05:38:59.286Z,5.34
2023-03-19T05:39:59.316Z,5.33
2023-03-19T05:40:59.311Z,5.31
2023-03-19T05:41:59.322Z,5.30
2023-03-19T05:42:59.355Z,5.28
2023-03-19T05:43:59.352Z,5.28
2023-03-19T05:44:59.356Z,5.28
2023-03-19T05:45:59.374Z,5.29
2023-03-19T05:46:59.425Z,5.28
2023-03-19T05:47:59.392Z,5.28
2023-03-19T05:48:59.417Z,5.26
2023-03-19T05:49:59.430Z,5.25
2023-03-19T05:50:59.470Z,5.24
2023-03-19T05:51:59.494Z,5.23
2023-03-19T05:52:59.447Z,5.22
2023-03-19T05:53:59.469Z,5.22
2023-03-19T05:54:59.495Z,5.21
2023-03-19T05:55:59.485Z,5.21
2023-03-19T05:56:59.526Z,5.20
2023-03-19T05:57:59.529Z,5.19
2023-03-19T05:58:59.511Z,5.19
2023-03-19T05:59:59.540Z,5.20
2023-03-19T06:00:59.614Z,5.20
2023-03-19T06:01:59.578Z,5.20
2023-03-19T06:02:59.593Z,5.22
2023-03-19T06:03:59.630Z,5.22
2023-03-19T06:04:59.589Z,5.23
2023-03-19T06:05:59.598Z,5.25
2023-03-19T06:06:59.641Z,5.27
2023-03-19T06:07:59.645Z,5.29
2023-03-19T06:08:59.635Z,5.31
2023-03-19T06:09:59.669Z,5.32
2023-03-19T06:10:59.681Z,5.33
2023-03-19T06:11:59.677Z,5.35
2023-03-19T06:12:59.709Z,5.35
2023-03-19T06:13:59.713Z,5.36
2023-03-19T06:14:59.727Z,5.38
2023-03-19T06:15:59.795Z,5.38
2023-03-19T06:16:59.744Z,5.39
2023-03-19T06:17:59.792Z,5.40
2023-03-19T06:18:59.787Z,5.41
2023-03-19T06:19:59.765Z,5.43
2023-03-19T06:20:59.775Z,5.43
2023-03-19T06:21:59.826Z,5.44
2023-03-19T06:22:59.812Z,5.48
2023-03-19T06:23:59.843Z,5.50
2023-03-19T06:24:59.839Z,5.50
2023-03-19T06:25:59.839Z,5.53
2023-03-19T06:26:59.877Z,5.56
2023-03-19T06:27:59.900Z,5.58
2023-03-19T06:28:59.915Z,5.61
2023-03-19T06:29:59.902Z,5.63
2023-03-19T06:30:59.919Z,5.65
2023-03-19T06:31:59.915Z,5.68
2023-03-19T06:32:59.990Z,5.72
2023-03-19T06:33:59.956Z,5.75
2023-03-19T06:34:59.966Z,5.78
2023-03-19T06:36:00.069Z,5.81
2023-03-19T06:36:59.973Z,5.85
2023-03-19T06:37:59.990Z,5.90
2023-03-19T06:39:00.010Z,5.93
2023-03-19T06:40:00.017Z,5.97
2023-03-19T06:41:00.021Z,6.02
2023-03-19T06:42:00.094Z,6.06
2023-03-19T06:43:00.062Z,6.09
2023-03-19T06:44:00.154Z,6.15
2023-03-19T06:45:00.100Z,6.19
2023-03-19T06:46:00.197Z,6.23
2023-03-19T06:47:00.118Z,6.27
2023-03-19T06:48:00.122Z,6.34
2023-03-19T06:49:00.146Z,6.38
2023-03-19T06:50:00.187Z,6.43
2023-03-19T06:51:00.209Z,6.50
2023-03-19T06:52:00.188Z,6.55
2023-03-19T06:53:00.187Z,6.62
2023-03-19T06:54:00.204Z,6.68
2023-03-19T06:55:00.194Z,6.73
2023-03-19T06:56:00.206Z,6.80
2023-03-19T06:57:00.228Z,6.86
2023-03-19T06:58:00.228Z,6.91
2023-03-19T06:59:00.265Z,6.98
2023-03-19T07:00:00.277Z,7.03
2023-03-19T07:01:00.311Z,7.09
2023-03-19T07:02:00.276Z,7.14
2023-03-19T07:03:00.310Z,7.20
2023-03-19T07:04:00.414Z,7.25
2023-03-19T07:05:20.723Z,7.33
2023-03-19T07:06:20.732Z,7.39
2023-03-19T07:07:20.694Z,7.45
2023-03-19T07:08:20.690Z,7.51
2023-03-19T07:09:20.688Z,7.57
2023-03-19T07:10:20.709Z,7.63
2023-03-19T07:11:20.688Z,7.67
2023-03-19T07:12:20.684Z,7.74
2023-03-19T07:13:20.703Z,7.84
2023-03-19T07:14:20.715Z,7.92
2023-03-19T07:15:20.805Z,7.98
2023-03-19T07:16:20.725Z,8.04
2023-03-19T07:17:20.719Z,8.12
2023-03-19T07:18:20.718Z,8.18
2023-03-19T07:19:20.710Z,8.27
2023-03-19T07:20:20.709Z,8.37
2023-03-19T07:21:20.764Z,8.46
2023-03-19T07:22:20.716Z,8.57
2023-03-19T07:23:20.762Z,8.68
2023-03-19T07:24:20.754Z,8.76
2023-03-19T07:25:20.728Z,8.85
2023-03-19T07:26:20.754Z,8.95
2023-03-19T07:27:20.721Z,9.05
2023-03-19T07:28:20.757Z,9.17
2023-03-19T07:29:20.729Z,9.27
2023-03-19T07:30:20.728Z,9.36
2023-03-19T07:31:20.792Z,9.46
2023-03-19T07:32:20.733Z,9.57
2023-03-19T07:33:20.748Z,9.64
2023-03-19T07:34:20.728Z,9.72
2023-03-19T07:35:20.790Z,9.84
2023-03-19T07:36:20.748Z,9.93
2023-03-19T07:37:22.459Z,10.01
2023-03-19T07:38:20.740Z,10.15
2023-03-19T07:39:20.720Z,10.30
2023-03-19T07:40:20.738Z,10.44
2023-03-19T07:41:20.743Z,10.58
2023-03-19T07:42:20.765Z,10.69
2023-03-19T07:43:20.874Z,10.79
2023-03-19T07:44:20.889Z,10.86
2023-03-19T07:45:20.941Z,10.92
2023-03-19T07:46:20.948Z,10.97
2023-03-19T07:47:29.000Z,11.02
2023-03-19T07:48:20.926Z,11.05
2023-03-19T07:49:20.919Z,11.10
2023-03-19T07:50:21.020Z,11.12
2023-03-19T07:51:20.928Z,11.15
2023-03-19T07:52:20.942Z,11.19
2023-03-19T07:53:20.935Z,11.20
2023-03-19T07:54:20.948Z,11.22
2023-03-19T07:55:20.937Z,11.26
2023-03-19T07:56:20.962Z,11.27
2023-03-19T07:57:21.034Z,11.29
2023-03-19T07:58:21.010Z,11.30
2023-03-19T07:59:21.024Z,11.31
2023-03-19T08:00:21.016Z,11.32
2023-03-19T08:01:21.285Z,11.33
2023-03-19T08:02:22.980Z,11.32
2023-03-19T08:03:21.057Z,11.34
2023-03-19T08:04:21.086Z,11.39
2023-03-19T08:05:21.117Z,11.41
2023-03-19T08:06:21.095Z,11.45
2023-03-19T08:07:21.108Z,11.48
2023-03-19T08:08:21.117Z,11.52
2023-03-19T08:09:21.141Z,11.55
2023-03-19T08:10:21.138Z,11.56
2023-03-19T08:11:21.145Z,11.58
2023-03-19T08:12:21.181Z,11.59
2023-03-19T08:13:21.171Z,11.60
2023-03-19T08:14:21.244Z,11.62
2023-03-19T08:15:21.274Z,11.62
2023-03-19T08:16:21.535Z,11.61
2023-03-19T08:17:21.240Z,11.63
2023-03-19T08:18:21.248Z,11.65
2023-03-19T08:19:21.442Z,11.67
2023-03-19T08:20:21.240Z,11.70
2023-03-19T08:21:21.276Z,11.74
2023-03-19T08:22:21.277Z,11.74
2023-03-19T08:23:21.305Z,11.75
2023-03-19T08:24:21.301Z,11.78
2023-03-19T08:25:21.302Z,11.79
2023-03-19T08:26:21.343Z,11.81
2023-03-19T08:27:21.331Z,11.81
2023-03-19T08:28:21.354Z,11.81
2023-03-19T08:29:21.403Z,11.81
2023-03-19T08:30:21.370Z,11.81
2023-03-19T08:31:21.475Z,11.82
2023-03-19T08:32:21.383Z,11.81
2023-03-19T08:33:21.403Z,11.79
2023-03-19T08:34:21.424Z,11.79
2023-03-19T08:35:21.422Z,11.77
2023-03-19T08:36:21.500Z,11.74
2023-03-19T08:37:21.448Z,11.74
2023-03-19T08:38:21.499Z,11.73
2023-03-19T08:39:21.492Z,11.73
2023-03-19T08:40:21.499Z,11.69
2023-03-19T08:41:21.506Z,11.68
2023-03-19T08:42:21.542Z,11.66
2023-03-19T08:43:21.514Z,11.65
2023-03-19T08:44:21.538Z,11.64
2023-03-19T08:45:21.555Z,11.64
2023-03-19T08:46:21.635Z,11.62
2023-03-19T08:47:21.567Z,11.60
2023-03-19T08:48:21.581Z,11.58
2023-03-19T08:49:21.605Z,11.56
2023-03-19T08:50:21.595Z,11.52
2023-03-19T08:51:21.645Z,11.48
2023-03-19T08:52:21.643Z,11.44
2023-03-19T08:53:21.673Z,11.39
2023-03-19T08:54:23.027Z,11.31
2023-03-19T08:55:21.685Z,11.27
2023-03-19T08:56:21.725Z,11.22
2023-03-19T08:57:21.687Z,11.19
2023-03-19T08:58:21.797Z,11.16
2023-03-19T08:59:21.726Z,11.13
2023-03-19T09:00:21.748Z,11.12
2023-03-19T09:01:21.781Z,11.12
2023-03-19T09:02:21.748Z,11.14
2023-03-19T09:03:21.770Z,11.16
2023-03-19T09:04:21.794Z,11.17
2023-03-19T09:05:21.813Z,11.20
2023-03-19T09:06:21.838Z,11.22
2023-03-19T09:07:21.835Z,11.23
2023-03-19T09:08:21.835Z,11.25
2023-03-19T09:09:21.840Z,11.27
2023-03-19T09:10:21.845Z,11.29
2023-03-19T09:11:21.894Z,11.32
2023-03-19T09:12:21.933Z,11.34
2023-03-19T09:13:21.889Z,11.36
2023-03-19T09:14:21.908Z,11.38
2023-03-19T09:15:21.910Z,11.43
2023-03-19T09:16:22.010Z,11.52
2023-03-19T09:17:21.974Z,11.58
2023-03-19T09:18:21.987Z,11.64
2023-03-19T09:19:21.953Z,11.73
2023-03-19T09:20:21.972Z,11.79
2023-03-19T09:21:21.974Z,11.81
2023-03-19T09:22:21.994Z,11.88
2023-03-19T09:23:21.994Z,11.95
2023-03-19T09:24:22.040Z,12.05
2023-03-19T09:25:22.033Z,12.18
2023-03-19T09:26:22.049Z,12.32
2023-03-19T09:27:22.071Z,12.48
2023-03-19T09:28:22.070Z,12.59
2023-03-19T09:29:22.079Z,12.65
2023-03-19T09:30:22.127Z,12.71
2023-03-19T09:31:22.120Z,12.82
2023-03-19T09:32:22.119Z,12.90
2023-03-19T09:33:22.110Z,12.95
2023-03-19T09:34:22.140Z,13.01
2023-03-19T09:35:22.239Z,13.09
2023-03-19T09:36:22.261Z,13.13
2023-03-19T09:37:22.249Z,13.13
2023-03-19T09:38:22.309Z,13.08
2023-03-19T09:39:22.265Z,13.06
2023-03-19T09:40:22.331Z,13.05
2023-03-19T09:41:22.270Z,13.05
2023-03-19T09:42:22.253Z,13.07
2023-03-19T09:43:22.276Z,13.10
2023-03-19T09:44:22.275Z,13.15
2023-03-19T09:45:22.355Z,13.20
2023-03-19T09:46:22.853Z,13.23
2023-03-19T09:47:22.331Z,13.25
2023-03-19T09:48:22.315Z,13.30
2023-03-19T09:49:22.321Z,13.31
2023-03-19T09:50:22.448Z,13.36
2023-03-19T09:51:22.341Z,13.42
2023-03-19T09:52:22.371Z,13.45
2023-03-19T09:53:22.372Z,13.46
2023-03-19T09:54:22.375Z,13.44
2023-03-19T09:55:22.586Z,13.43
2023-03-19T09:56:22.448Z,13.42
2023-03-19T09:57:22.494Z,13.45
2023-03-19T09:58:22.466Z,13.43
2023-03-19T09:59:22.451Z,13.44
2023-03-19T10:00:22.552Z,13.48
2023-03-19T10:01:22.488Z,13.47
2023-03-19T10:02:22.481Z,13.43
2023-03-19T10:03:22.542Z,13.39
2023-03-19T10:04:22.565Z,13.35
2023-03-19T10:05:22.535Z,13.38
2023-03-19T10:06:22.541Z,13.38
2023-03-19T10:07:22.544Z,13.36
2023-03-19T10:08:22.579Z,13.35
2023-03-19T10:09:22.572Z,13.35
2023-03-19T10:10:22.602Z,13.36
2023-03-19T10:11:22.592Z,13.34
2023-03-19T10:12:22.619Z,13.33
2023-03-19T10:13:22.616Z,13.31
2023-03-19T10:14:22.624Z,13.30
2023-03-19T10:15:22.661Z,13.26
2023-03-19T10:16:22.788Z,13.22
2023-03-19T10:17:22.677Z,13.19
2023-03-19T10:18:22.698Z,13.21
2023-03-19T10:19:22.694Z,13.26
2023-03-19T10:20:22.705Z,13.29
2023-03-19T10:21:22.743Z,13.31
2023-03-19T10:22:22.749Z,13.36
2023-03-19T10:23:22.737Z,13.44
2023-03-19T10:24:22.759Z,13.52
2023-03-19T10:25:22.810Z,13.62
2023-03-19T10:26:22.789Z,13.68
2023-03-19T10:27:22.815Z,13.71
2023-03-19T10:28:22.801Z,13.73
2023-03-19T10:29:22.810Z,13.74
2023-03-19T10:30:22.864Z,13.73
2023-03-19T10:31:22.840Z,13.73
2023-03-19T10:32:22.848Z,13.67
2023-03-19T10:33:22.863Z,13.59
2023-03-19T10:34:22.880Z,13.51
2023-03-19T10:35:22.899Z,13.46
2023-03-19T10:36:23.028Z,13.40
2023-03-19T10:37:22.932Z,13.35
2023-03-19T10:38:22.941Z,13.32
2023-03-19T10:39:22.927Z,13.32
2023-03-19T10:40:22.987Z,13.34
2023-03-19T10:41:22.979Z,13.35
2023-03-19T10:42:22.979Z,13.36
2023-03-19T10:43:23.006Z,13.36
2023-03-19T10:44:22.957Z,13.35
2023-03-19T10:45:23.016Z,13.35
2023-03-19T10:46:23.116Z,13.33
2023-03-19T10:47:23.035Z,13.35
2023-03-19T10:48:23.040Z,13.39
2023-03-19T10:49:23.076Z,13.39
2023-03-19T10:50:23.064Z,13.34
2023-03-19T10:51:23.087Z,13.33
2023-03-19T10:52:23.118Z,13.30
2023-03-19T10:53:23.110Z,13.29
2023-03-19T10:54:23.106Z,13.32
2023-03-19T10:55:23.133Z,13.35
2023-03-19T10:56:23.307Z,13.39
2023-03-19T10:57:23.162Z,13.41
2023-03-19T10:58:23.163Z,13.38
2023-03-19T10:59:23.200Z,13.34
2023-03-19T11:00:23.223Z,13.32
2023-03-19T11:01:23.247Z,13.30
2023-03-19T11:02:23.240Z,13.30
2023-03-19T11:03:23.231Z,13.29
2023-03-19T11:04:23.237Z,13.31
2023-03-19T11:05:23.246Z,13.34
2023-03-19T11:06:23.297Z,13.38
2023-03-19T11:07:23.280Z,13.40
2023-03-19T11:08:35.161Z,13.45
2023-03-19T11:09:23.282Z,13.49
2023-03-19T11:10:23.271Z,13.52
2023-03-19T11:11:23.304Z,13.56
2023-03-19T11:12:23.300Z,13.63
2023-03-19T11:13:23.284Z,13.69
2023-03-19T11:14:23.281Z,13.73
2023-03-19T11:15:23.287Z,13.70
2023-03-19T11:16:23.331Z,13.67
2023-03-19T11:17:23.315Z,13.64
2023-03-19T11:18:23.280Z,13.61
2023-03-19T11:19:23.304Z,13.60
2023-03-19T11:20:23.293Z,13.63
2023-03-19T11:21:23.297Z,13.66
2023-03-19T11:22:23.320Z,13.71
2023-03-19T11:23:23.283Z,13.76
2023-03-19T11:24:23.281Z,13.76
2023-03-19T11:25:23.302Z,13.73
2023-03-19T11:26:23.307Z,13.66
2023-03-19T11:27:23.298Z,13.62
2023-03-19T11:28:26.004Z,13.62
2023-03-19T11:29:23.293Z,13.62
2023-03-19T11:30:23.328Z,13.64
2023-03-19T11:31:23.350Z,13.62
2023-03-19T11:32:23.407Z,13.58
2023-03-19T11:33:23.349Z,13.55
2023-03-19T11:34:23.305Z,13.50
2023-03-19T11:35:23.309Z,13.47
2023-03-19T11:36:23.358Z,13.46
2023-03-19T11:37:23.318Z,13.44
2023-03-19T11:38:23.308Z,13.42
2023-03-19T11:39:23.302Z,13.39
2023-03-19T11:40:25.186Z,13.32
2023-03-19T11:41:23.332Z,13.28
2023-03-19T11:42:23.319Z,13.24
2023-03-19T11:43:23.303Z,13.20
2023-03-19T11:44:23.311Z,13.16
2023-03-19T11:45:23.308Z,13.12
2023-03-19T11:46:23.375Z,13.10
2023-03-19T11:47:27.465Z,13.09
2023-03-19T11:48:23.309Z,13.10
2023-03-19T11:49:23.338Z,13.08
2023-03-19T11:50:23.350Z,13.08
2023-03-19T11:51:23.364Z,13.08
2023-03-19T11:52:23.357Z,13.08
2023-03-19T11:53:23.334Z,13.07
2023-03-19T11:54:23.331Z,13.08
2023-03-19T11:55:23.343Z,13.08
2023-03-19T11:56:23.344Z,13.05
2023-03-19T11:57:23.375Z,13.06
2023-03-19T11:58:23.369Z,13.06
2023-03-19T11:59:23.340Z,13.02
2023-03-19T12:00:23.343Z,12.97
2023-03-19T12:01:23.342Z,12.94
2023-03-19T12:02:23.400Z,12.91
2023-03-19T12:03:23.452Z,12.86
2023-03-19T12:04:23.384Z,12.85
2023-03-19T12:05:23.346Z,12.84
2023-03-19T12:06:23.353Z,12.83
2023-03-19T12:07:23.341Z,12.82
2023-03-19T12:08:23.405Z,12.77
2023-03-19T12:09:23.362Z,12.75
2023-03-19T12:10:23.356Z,12.68
2023-03-19T12:11:23.364Z,12.53
2023-03-19T12:12:25.430Z,12.39
2023-03-19T12:13:23.362Z,12.26
2023-03-19T12:14:23.369Z,12.10
2023-03-19T12:15:23.356Z,11.94
2023-03-19T12:16:23.381Z,11.78
2023-03-19T12:17:23.384Z,11.70
2023-03-19T12:18:23.379Z,11.64
2023-03-19T12:19:23.391Z,11.59
2023-03-19T12:20:23.368Z,11.53
2023-03-19T12:21:23.368Z,11.50
2023-03-19T12:22:23.384Z,11.47
2023-03-19T12:23:23.364Z,11.45
2023-03-19T12:24:23.389Z,11.42
2023-03-19T12:25:23.375Z,11.40
2023-03-19T12:26:23.381Z,11.41
2023-03-19T12:27:23.394Z,11.41
2023-03-19T12:28:23.459Z,11.45
2023-03-19T12:29:23.374Z,11.44
2023-03-19T12:30:23.411Z,11.45
2023-03-19T12:31:23.450Z,11.46
2023-03-19T12:32:23.381Z,11.48
2023-03-19T12:33:23.372Z,11.48
2023-03-19T12:34:23.415Z,11.48
2023-03-19T12:35:23.397Z,11.48
2023-03-19T12:36:23.406Z,11.50
2023-03-19T12:37:23.416Z,11.54
2023-03-19T12:38:23.385Z,11.57
2023-03-19T12:39:23.435Z,11.59
2023-03-19T12:40:23.392Z,11.60
2023-03-19T12:41:23.388Z,11.64
2023-03-19T12:42:23.412Z,11.68
2023-03-19T12:43:23.409Z,11.71
2023-03-19T12:44:23.427Z,11.69
2023-03-19T12:45:23.405Z,11.69
2023-03-19T12:46:23.474Z,11.67
2023-03-19T12:47:23.438Z,11.65
2023-03-19T12:48:23.412Z,11.65
2023-03-19T12:49:23.399Z,11.67
2023-03-19T12:50:23.421Z,11.68
2023-03-19T12:51:23.420Z,11.71
2023-03-19T12:52:23.393Z,11.74
2023-03-19T12:53:23.444Z,11.77
2023-03-19T12:54:23.403Z,11.77
2023-03-19T12:55:23.423Z,11.80
2023-03-19T12:56:23.404Z,11.81
2023-03-19T12:57:23.406Z,11.80
2023-03-19T12:58:23.417Z,11.82
2023-03-19T12:59:23.427Z,11.80
2023-03-19T13:00:23.411Z,11.80
2023-03-19T13:01:23.438Z,11.83
2023-03-19T13:02:23.546Z,11.84
2023-03-19T13:03:23.410Z,11.89
2023-03-19T13:04:23.457Z,11.91
2023-03-19T13:05:40.228Z,11.94
2023-03-19T13:06:40.203Z,11.93
2023-03-19T13:07:40.205Z,11.91
2023-03-19T13:08:40.207Z,11.88
2023-03-19T13:09:40.240Z,11.91